createdAt,value
2023-06-14T00:00:32.080Z,14.32
2023-06-14T00:01:35.517Z,15.00
2023-06-14T00:02:37.847Z,14.62
2023-06-14T00:03:40.205Z,14.56
2023-06-14T00:04:42.616Z,14.50
2023-06-14T00:05:45.062Z,16.15
2023-06-14T00:06:47.591Z,15.13
2023-06-14T00:07:50.371Z,14.79
2023-06-14T00:08:52.578Z,14.57
2023-06-14T00:09:54.745Z,15.90
2023-06-14T00:10:56.974Z,15.27
2023-06-14T00:11:59.192Z,14.99
2023-06-14T00:13:01.545Z,14.75
2023-06-14T00:14:04.919Z,15.34
2023-06-14T00:15:08.265Z,15.57
2023-06-14T00:16:10.684Z,15.24
2023-06-14T00:17:13.251Z,14.96
2023-06-14T00:18:16.061Z,14.69
2023-06-14T00:19:18.358Z,14.47
2023-06-14T00:20:20.667Z,15.24
2023-06-14T00:21:22.841Z,14.98
2023-06-14T00:22:25.945Z,14.47
2023-06-14T00:23:28.240Z,14.35
2023-06-14T00:24:30.664Z,14.34
2023-06-14T00:25:33.147Z,14.31
2023-06-14T00:26:35.547Z,15.01
2023-06-14T00:27:37.921Z,15.95
2023-06-14T00:28:40.236Z,16.11
2023-06-14T00:29:42.671Z,16.75
2023-06-14T00:30:47.424Z,15.88
2023-06-14T00:31:49.764Z,15.97
2023-06-14T00:32:52.681Z,17.00
2023-06-14T00:33:55.148Z,16.37
2023-06-14T00:34:57.540Z,16.38
2023-06-14T00:35:59.782Z,15.75
2023-06-14T00:37:02.433Z,16.88
2023-06-14T00:38:05.043Z,16.70
2023-06-14T00:39:07.244Z,16.07
2023-06-14T00:40:12.016Z,16.25
2023-06-14T00:41:14.326Z,16.07
2023-06-14T00:42:28.307Z,16.56
2023-06-14T00:43:30.602Z,16.02
2023-06-14T00:44:32.837Z,16.14
2023-06-14T00:45:36.949Z,16.51
2023-06-14T00:46:39.370Z,16.48
2023-06-14T00:47:43.814Z,15.82
2023-06-14T00:48:46.518Z,15.17
2023-06-14T00:49:50.610Z,14.92
2023-06-14T00:50:53.880Z,15.15
2023-06-14T00:51:56.606Z,14.76
2023-06-14T00:52:58.878Z,14.79
2023-06-14T00:54:01.442Z,14.40
2023-06-14T00:55:04.460Z,14.37
2023-06-14T00:56:07.346Z,13.99
2023-06-14T00:57:11.716Z,13.82
2023-06-14T00:58:15.248Z,15.02
2023-06-14T00:59:18.210Z,14.29
2023-06-14T01:00:20.511Z,14.18
2023-06-14T01:01:23.123Z,13.96
2023-06-14T01:02:25.611Z,14.60
2023-06-14T01:03:30.581Z,14.68
2023-06-14T01:04:32.943Z,14.09
2023-06-14T01:05:35.181Z,13.87
2023-06-14T01:07:04.863Z,13.88
2023-06-14T01:08:22.603Z,13.89
2023-06-14T01:09:38.903Z,14.12
2023-06-14T01:11:05.336Z,14.16
2023-06-14T01:12:24.854Z,13.59
2023-06-14T01:13:43.724Z,13.59
2023-06-14T01:14:48.466Z,13.37
2023-06-14T01:15:52.117Z,13.31
2023-06-14T01:16:56.225Z,13.17
2023-06-14T01:18:04.012Z,13.10
2023-06-14T01:19:07.621Z,13.09
2023-06-14T01:20:15.224Z,13.03
2023-06-14T01:21:24.972Z,12.86
2023-06-14T01:22:28.539Z,12.99
2023-06-14T01:23:33.389Z,12.88
2023-06-14T01:24:35.919Z,12.89
2023-06-14T01:25:38.679Z,13.04
2023-06-14T01:26:46.766Z,12.99
2023-06-14T01:27:54.880Z,12.72
2023-06-14T01:28:59.584Z,12.67
2023-06-14T01:30:04.312Z,12.78
2023-06-14T01:31:07.199Z,13.66
2023-06-14T01:32:09.891Z,13.46
2023-06-14T01:33:17.220Z,13.22
2023-06-14T01:34:19.520Z,13.39
2023-06-14T01:35:22.149Z,13.27
2023-06-14T01:36:28.729Z,13.26
2023-06-14T01:37:33.742Z,13.15
2023-06-14T01:38:38.180Z,12.87
2023-06-14T01:39:41.689Z,12.89
2023-06-14T01:40:45.560Z,12.84
2023-06-14T01:41:50.241Z,12.89
2023-06-14T01:42:53.187Z,13.05
2023-06-14T01:43:56.954Z,13.09
2023-06-14T01:44:59.372Z,13.09
2023-06-14T01:46:03.359Z,13.13
2023-06-14T01:47:06.563Z,13.00
2023-06-14T01:48:10.359Z,12.72
2023-06-14T01:49:12.764Z,12.57
2023-06-14T01:50:15.222Z,12.65
2023-06-14T01:51:17.724Z,12.60
2023-06-14T01:52:20.673Z,12.57
2023-06-14T01:53:23.612Z,12.50
2023-06-14T01:54:26.755Z,12.52
2023-06-14T01:55:29.171Z,12.51
2023-06-14T01:56:31.523Z,12.42
2023-06-14T01:57:34.028Z,12.73
2023-06-14T01:58:36.616Z,12.84
2023-06-14T01:59:39.178Z,12.90
2023-06-14T02:02:08.723Z,12.67
2023-06-14T02:03:12.714Z,12.63
2023-06-14T02:05:53.461Z,12.82
2023-06-14T02:06:55.786Z,12.88
2023-06-14T02:07:58.672Z,12.55
2023-06-14T02:09:02.625Z,12.54
2023-06-14T02:10:06.072Z,12.60
2023-06-14T02:11:08.395Z,12.69
2023-06-14T02:12:12.794Z,12.81
2023-06-14T02:13:15.077Z,12.70
2023-06-14T02:14:18.106Z,12.65
2023-06-14T02:15:20.928Z,12.54
2023-06-14T02:16:23.513Z,12.55
2023-06-14T02:17:25.987Z,12.51
2023-06-14T02:18:28.296Z,12.39
2023-06-14T02:19:32.276Z,12.49
2023-06-14T02:20:34.544Z,12.36
2023-06-14T02:21:36.825Z,12.23
2023-06-14T02:22:39.153Z,12.25
2023-06-14T02:23:43.310Z,12.46
2023-06-14T02:24:46.640Z,12.73
2023-06-14T02:25:48.963Z,12.50
2023-06-14T02:26:51.618Z,12.41
2023-06-14T02:27:53.948Z,12.33
2023-06-14T02:28:56.192Z,12.30
2023-06-14T02:29:58.476Z,12.23
2023-06-14T02:31:02.246Z,12.23
2023-06-14T02:32:05.988Z,12.14
2023-06-14T02:33:09.383Z,12.07
2023-06-14T02:34:11.709Z,12.00
2023-06-14T02:35:14.378Z,12.17
2023-06-14T02:36:16.609Z,12.25
2023-06-14T02:37:19.040Z,12.92
2023-06-14T02:38:22.551Z,13.40
2023-06-14T02:39:24.935Z,13.43
2023-06-14T02:40:27.272Z,13.54
2023-06-14T02:41:29.612Z,12.97
2023-06-14T02:42:32.019Z,12.81
2023-06-14T02:43:34.353Z,12.70
2023-06-14T02:44:37.528Z,12.83
2023-06-14T02:45:39.805Z,12.86
2023-06-14T02:46:42.278Z,12.67
2023-06-14T02:47:44.555Z,13.08
2023-06-14T02:48:48.848Z,13.01
2023-06-14T02:49:51.180Z,12.75
2023-06-14T02:50:53.499Z,12.36
2023-06-14T02:51:55.953Z,12.23
2023-06-14T02:52:58.263Z,12.07
2023-06-14T02:54:00.918Z,12.02
2023-06-14T02:55:03.294Z,11.98
2023-06-14T02:56:06.140Z,11.97
2023-06-14T02:57:09.035Z,11.94
2023-06-14T02:58:11.831Z,11.88
2023-06-14T02:59:14.932Z,11.96
2023-06-14T03:00:18.163Z,11.98
2023-06-14T03:01:24.312Z,11.77
2023-06-14T03:02:26.831Z,11.92
2023-06-14T03:03:29.450Z,12.00
2023-06-14T03:04:38.037Z,11.82
2023-06-14T03:05:50.472Z,11.83
2023-06-14T03:06:55.927Z,11.74
2023-06-14T03:07:59.245Z,11.87
2023-06-14T03:09:05.368Z,11.75
2023-06-14T03:10:10.398Z,11.80
2023-06-14T03:11:14.617Z,11.74
2023-06-14T03:12:16.924Z,11.75
2023-06-14T03:13:23.145Z,11.89
2023-06-14T03:14:27.792Z,11.83
2023-06-14T03:15:30.354Z,11.72
2023-06-14T03:16:33.296Z,11.66
2023-06-14T03:17:40.085Z,11.78
2023-06-14T03:18:43.361Z,11.73
2023-06-14T03:19:45.668Z,12.47
2023-06-14T03:20:49.053Z,12.12
2023-06-14T03:21:51.310Z,12.27
2023-06-14T03:22:55.198Z,13.53
2023-06-14T03:23:57.587Z,12.84
2023-06-14T03:25:01.353Z,12.53
2023-06-14T03:26:07.281Z,12.27
2023-06-14T03:27:11.251Z,12.32
2023-06-14T03:28:15.940Z,12.71
2023-06-14T03:29:18.383Z,13.45
2023-06-14T03:30:20.832Z,12.86
2023-06-14T03:31:25.471Z,13.10
2023-06-14T03:32:28.117Z,12.94
2023-06-14T03:33:30.694Z,13.47
2023-06-14T03:34:33.329Z,13.10
2023-06-14T03:35:36.034Z,13.54
2023-06-14T03:36:38.881Z,13.91
2023-06-14T03:37:41.234Z,14.23
2023-06-14T03:38:43.436Z,14.02
2023-06-14T03:39:47.904Z,14.91
2023-06-14T03:40:57.103Z,15.61
2023-06-14T03:41:59.369Z,14.83
2023-06-14T03:43:01.614Z,14.95
2023-06-14T03:44:04.105Z,14.26
2023-06-14T03:45:07.878Z,14.26
2023-06-14T03:46:10.474Z,15.17
2023-06-14T03:47:13.237Z,15.10
2023-06-14T03:48:15.990Z,15.69
2023-06-14T03:49:19.797Z,15.44
2023-06-14T03:50:22.467Z,15.39
2023-06-14T03:51:26.375Z,15.54
2023-06-14T03:52:29.052Z,15.65
2023-06-14T03:53:31.859Z,16.06
2023-06-14T03:55:56.682Z,16.69
2023-06-14T03:57:04.526Z,16.54
2023-06-14T03:58:07.025Z,16.24
2023-06-14T03:59:09.292Z,17.22
2023-06-14T04:00:13.072Z,17.35
2023-06-14T04:01:19.042Z,16.51
2023-06-14T04:02:21.473Z,16.91
2023-06-14T04:03:26.087Z,16.94
2023-06-14T04:04:30.604Z,16.87
2023-06-14T04:05:34.671Z,16.55
2023-06-14T04:06:36.953Z,16.95
2023-06-14T04:07:41.140Z,16.61
2023-06-14T04:08:46.509Z,16.52
2023-06-14T04:09:50.001Z,15.37
2023-06-14T04:10:52.457Z,15.96
2023-06-14T04:11:54.714Z,15.87
2023-06-14T04:12:57.050Z,15.92
2023-06-14T04:13:59.829Z,15.56
2023-06-14T04:15:19.228Z,16.29
2023-06-14T04:16:22.859Z,16.29
2023-06-14T04:17:25.095Z,15.39
2023-06-14T04:18:28.386Z,14.98
2023-06-14T04:19:31.940Z,15.35
2023-06-14T04:20:34.680Z,16.70
2023-06-14T04:21:37.633Z,17.69
2023-06-14T04:22:42.054Z,16.73
2023-06-14T04:23:45.175Z,16.36
2023-06-14T04:25:00.806Z,16.21
2023-06-14T04:26:07.488Z,16.48
2023-06-14T04:27:09.734Z,16.48
2023-06-14T04:28:19.423Z,16.57
2023-06-14T04:29:22.233Z,16.96
2023-06-14T04:30:32.573Z,17.15
2023-06-14T04:31:35.029Z,17.08
2023-06-14T04:32:40.898Z,17.86
2023-06-14T04:33:46.611Z,18.47
2023-06-14T04:34:58.430Z,19.21
2023-06-14T04:36:01.924Z,21.13
2023-06-14T04:37:04.408Z,22.91
2023-06-14T04:38:11.172Z,22.73
2023-06-14T04:39:14.347Z,24.24
2023-06-14T04:40:16.601Z,26.43
2023-06-14T04:41:20.215Z,27.74
2023-06-14T04:42:26.094Z,28.15
2023-06-14T04:43:29.143Z,29.19
2023-06-14T04:44:35.609Z,28.83
2023-06-14T04:45:40.879Z,28.56
2023-06-14T04:46:49.957Z,29.63
2023-06-14T04:47:58.515Z,28.61
2023-06-14T04:49:03.299Z,27.52
2023-06-14T04:50:06.092Z,27.22
2023-06-14T04:51:09.424Z,26.63
2023-06-14T04:52:14.084Z,26.61
2023-06-14T04:53:22.831Z,26.42
2023-06-14T04:54:26.440Z,26.48
2023-06-14T04:55:29.232Z,26.62
2023-06-14T04:56:31.731Z,27.38
2023-06-14T04:57:34.405Z,28.04
2023-06-14T04:58:37.450Z,27.66
2023-06-14T04:59:39.896Z,26.49
2023-06-14T05:00:44.359Z,26.34
2023-06-14T05:01:49.507Z,26.21
2023-06-14T05:02:52.177Z,25.28
2023-06-14T05:03:54.722Z,24.53
2023-06-14T05:04:58.222Z,25.25
2023-06-14T05:06:01.569Z,24.44
2023-06-14T05:07:03.922Z,23.87
2023-06-14T05:08:06.771Z,23.99
2023-06-14T05:09:08.984Z,23.98
2023-06-14T05:10:11.599Z,23.88
2023-06-14T05:11:13.857Z,24.64
2023-06-14T05:12:19.349Z,25.64
2023-06-14T05:13:23.999Z,26.57
2023-06-14T05:14:26.381Z,27.45
2023-06-14T05:15:29.987Z,26.34
2023-06-14T05:16:32.210Z,25.75
2023-06-14T05:17:34.448Z,26.28
2023-06-14T05:18:36.834Z,27.43
2023-06-14T05:19:39.145Z,25.29
2023-06-14T05:20:42.922Z,24.30
2023-06-14T05:21:45.789Z,24.40
2023-06-14T05:22:48.863Z,24.76
2023-06-14T05:23:52.439Z,24.19
2023-06-14T05:24:54.713Z,24.23
2023-06-14T05:25:57.687Z,25.09
2023-06-14T05:27:00.283Z,25.84
2023-06-14T05:28:02.738Z,25.38
2023-06-14T05:29:05.076Z,25.40
2023-06-14T05:30:08.192Z,23.36
2023-06-14T05:31:10.481Z,23.75
2023-06-14T05:32:12.730Z,23.55
2023-06-14T05:33:15.100Z,24.15
2023-06-14T05:34:17.422Z,25.12
2023-06-14T05:35:19.709Z,23.91
2023-06-14T05:36:24.667Z,23.27
2023-06-14T05:37:26.917Z,23.00
2023-06-14T05:38:29.204Z,23.81
2023-06-14T05:39:31.423Z,26.10
2023-06-14T05:40:33.565Z,26.23
2023-06-14T05:41:35.768Z,26.50
2023-06-14T05:42:38.258Z,26.58
2023-06-14T05:43:40.692Z,27.22
2023-06-14T05:44:42.841Z,26.65
2023-06-14T05:45:45.000Z,25.70
2023-06-14T05:46:47.261Z,25.23
2023-06-14T05:47:49.607Z,25.80
2023-06-14T05:48:55.637Z,26.60
2023-06-14T05:49:57.802Z,27.43
2023-06-14T05:51:00.713Z,27.88
2023-06-14T05:52:02.978Z,26.26
2023-06-14T05:53:05.217Z,25.46
2023-06-14T05:54:07.408Z,26.57
2023-06-14T05:55:10.201Z,26.48
2023-06-14T05:56:12.409Z,26.22
2023-06-14T05:57:14.595Z,25.07
2023-06-14T05:58:16.818Z,26.44
2023-06-14T05:59:19.080Z,27.38
2023-06-14T06:00:21.785Z,28.22
2023-06-14T06:01:24.117Z,28.20
2023-06-14T06:02:26.487Z,26.43
2023-06-14T06:03:30.511Z,26.08
2023-06-14T06:04:32.883Z,25.90
2023-06-14T06:05:35.318Z,25.50
2023-06-14T06:06:37.511Z,25.61
2023-06-14T06:07:43.531Z,26.78
2023-06-14T06:08:46.148Z,26.48
2023-06-14T06:09:48.866Z,26.43
2023-06-14T06:10:51.207Z,26.04
2023-06-14T06:11:54.368Z,26.68
2023-06-14T06:12:56.833Z,28.55
2023-06-14T06:13:59.071Z,26.70
2023-06-14T06:15:01.632Z,27.56
2023-06-14T06:16:04.841Z,29.27
2023-06-14T06:17:07.587Z,27.21
2023-06-14T06:18:09.862Z,25.28
2023-06-14T06:19:12.045Z,24.63
2023-06-14T06:20:14.367Z,25.70
2023-06-14T06:21:16.899Z,26.73
2023-06-14T06:22:19.206Z,26.44
2023-06-14T06:23:21.431Z,25.34
2023-06-14T06:24:23.896Z,24.72
2023-06-14T06:25:27.246Z,26.03
2023-06-14T06:26:29.514Z,25.52
2023-06-14T06:27:31.740Z,24.76
2023-06-14T06:28:33.904Z,24.84
2023-06-14T06:29:36.334Z,24.74
2023-06-14T06:30:39.687Z,24.33
2023-06-14T06:31:41.916Z,25.02
2023-06-14T06:32:44.208Z,25.79
2023-06-14T06:33:46.396Z,25.17
2023-06-14T06:34:48.769Z,24.15
2023-06-14T06:35:51.083Z,24.37
2023-06-14T06:36:53.263Z,24.69
2023-06-14T06:37:56.456Z,24.97
2023-06-14T06:38:58.771Z,25.73
2023-06-14T06:40:01.135Z,25.00
2023-06-14T06:41:03.444Z,25.17
2023-06-14T06:42:06.298Z,25.38
2023-06-14T06:43:14.691Z,26.00
2023-06-14T06:44:21.630Z,25.31
2023-06-14T06:45:26.308Z,24.06
2023-06-14T06:46:28.623Z,24.99
2023-06-14T06:47:31.069Z,25.08
2023-06-14T06:48:33.585Z,25.33
2023-06-14T06:49:36.046Z,24.81
2023-06-14T06:50:38.450Z,26.85
2023-06-14T06:51:46.764Z,25.29
2023-06-14T06:52:48.941Z,25.73
2023-06-14T06:53:55.050Z,25.30
2023-06-14T06:54:58.181Z,25.97
2023-06-14T06:56:00.551Z,25.85
2023-06-14T06:57:03.010Z,26.16
2023-06-14T06:58:06.688Z,26.12
2023-06-14T06:59:09.007Z,25.45
2023-06-14T07:00:11.702Z,26.11
2023-06-14T07:01:14.506Z,25.86
2023-06-14T07:02:17.492Z,27.53
2023-06-14T07:03:19.871Z,25.60
2023-06-14T07:04:22.112Z,24.13
2023-06-14T07:05:24.470Z,23.85
2023-06-14T07:06:28.142Z,23.81
2023-06-14T07:07:30.452Z,23.76
2023-06-14T07:08:32.656Z,23.91
2023-06-14T07:09:34.864Z,23.74
2023-06-14T07:10:38.463Z,24.24
2023-06-14T07:11:40.912Z,23.93
2023-06-14T07:12:43.186Z,24.94
2023-06-14T07:13:46.459Z,24.67
2023-06-14T07:14:48.693Z,25.02
2023-06-14T07:15:51.008Z,26.41
2023-06-14T07:16:53.274Z,25.45
2023-06-14T07:18:00.943Z,24.89
2023-06-14T07:19:04.428Z,24.18
2023-06-14T07:20:14.631Z,23.28
2023-06-14T07:21:16.874Z,23.42
2023-06-14T07:22:19.049Z,22.74
2023-06-14T07:23:21.994Z,22.62
2023-06-14T07:24:24.423Z,22.93
2023-06-14T07:25:27.203Z,22.05
2023-06-14T07:26:29.378Z,22.11
2023-06-14T07:27:31.630Z,21.63
2023-06-14T07:28:33.877Z,21.85
2023-06-14T07:29:36.136Z,21.48
2023-06-14T07:30:38.386Z,21.76
2023-06-14T07:31:40.675Z,20.68
2023-06-14T07:32:43.139Z,20.04
2023-06-14T07:33:45.935Z,20.36
2023-06-14T07:34:48.339Z,20.38
2023-06-14T07:35:51.015Z,20.88
2023-06-14T07:36:53.324Z,21.38
2023-06-14T07:37:55.564Z,20.97
2023-06-14T07:38:57.763Z,20.40
2023-06-14T07:39:59.996Z,20.16
2023-06-14T07:41:02.559Z,19.97
2023-06-14T07:42:04.912Z,19.87
2023-06-14T07:43:07.738Z,19.86
2023-06-14T07:44:09.976Z,19.67
2023-06-14T07:45:14.972Z,20.34
2023-06-14T07:46:17.551Z,20.12
2023-06-14T07:47:19.770Z,20.11
2023-06-14T07:48:22.122Z,19.83
2023-06-14T07:49:24.376Z,19.71
2023-06-14T07:50:26.589Z,20.33
2023-06-14T07:51:28.785Z,20.39
2023-06-14T07:52:31.809Z,20.16
2023-06-14T07:53:34.048Z,20.20
2023-06-14T07:54:36.992Z,20.06
2023-06-14T07:55:52.471Z,19.89
2023-06-14T07:56:57.134Z,19.59
2023-06-14T07:57:59.509Z,19.71
2023-06-14T07:59:01.890Z,19.79
2023-06-14T08:00:07.286Z,19.57
2023-06-14T08:01:14.528Z,19.76
2023-06-14T08:02:16.976Z,20.02
2023-06-14T08:03:19.311Z,19.77
2023-06-14T08:04:21.842Z,19.86
2023-06-14T08:05:24.035Z,19.63
2023-06-14T08:06:26.412Z,19.63
2023-06-14T08:07:28.743Z,19.73
2023-06-14T08:08:31.716Z,19.70
2023-06-14T08:09:34.087Z,19.81
2023-06-14T08:10:36.327Z,20.20
2023-06-14T08:11:38.616Z,20.27
2023-06-14T08:12:40.849Z,20.37
2023-06-14T08:13:43.096Z,20.67
2023-06-14T08:14:45.958Z,20.95
2023-06-14T08:15:48.492Z,20.31
2023-06-14T08:16:50.870Z,20.14
2023-06-14T08:17:53.284Z,20.59
2023-06-14T08:18:56.574Z,20.61
2023-06-14T08:19:58.793Z,20.78
2023-06-14T08:21:01.039Z,20.74
2023-06-14T08:22:04.704Z,21.03
2023-06-14T08:23:07.113Z,20.70
2023-06-14T08:24:09.511Z,20.52
2023-06-14T08:25:13.175Z,20.59
2023-06-14T08:26:15.644Z,20.62
2023-06-14T08:27:18.550Z,20.48
2023-06-14T08:28:21.508Z,20.67
2023-06-14T08:29:23.718Z,21.46
2023-06-14T08:30:26.135Z,21.63
2023-06-14T08:31:28.571Z,21.56
2023-06-14T08:32:30.933Z,21.34
2023-06-14T08:33:34.353Z,21.65
2023-06-14T08:34:36.774Z,21.06
2023-06-14T08:35:40.498Z,21.26
2023-06-14T08:36:43.263Z,21.11
2023-06-14T08:37:46.143Z,21.24
2023-06-14T08:38:48.431Z,21.58
2023-06-14T08:39:50.816Z,21.35
2023-06-14T08:40:57.926Z,21.39
2023-06-14T08:42:03.030Z,21.45
2023-06-14T08:43:05.469Z,21.85
2023-06-14T08:44:08.427Z,22.33
2023-06-14T08:45:11.080Z,22.74
2023-06-14T08:46:17.682Z,22.99
2023-06-14T08:47:21.914Z,23.38
2023-06-14T08:48:27.069Z,23.09
2023-06-14T08:49:30.584Z,22.78
2023-06-14T08:50:35.314Z,22.67
2023-06-14T08:51:39.074Z,22.38
2023-06-14T08:52:46.692Z,22.80
2023-06-14T08:53:58.329Z,23.04
2023-06-14T08:55:01.179Z,23.22
2023-06-14T08:56:06.073Z,23.67
2023-06-14T08:57:08.911Z,22.87
2023-06-14T08:58:15.502Z,22.95
2023-06-14T08:59:19.137Z,22.99
2023-06-14T09:00:22.262Z,23.36
2023-06-14T09:01:25.209Z,23.59
2023-06-14T09:02:27.452Z,23.25
2023-06-14T09:03:34.290Z,22.38
2023-06-14T09:04:36.963Z,22.80
2023-06-14T09:05:39.407Z,22.75
2023-06-14T09:06:41.753Z,22.96
2023-06-14T09:07:44.296Z,22.68
2023-06-14T09:08:49.472Z,22.81
2023-06-14T09:10:08.237Z,22.73
2023-06-14T09:11:14.352Z,22.14
2023-06-14T09:12:16.937Z,22.67
2023-06-14T09:13:19.230Z,22.86
2023-06-14T09:14:22.367Z,22.87
2023-06-14T09:15:24.601Z,22.79
2023-06-14T09:16:27.162Z,22.34
2023-06-14T09:17:29.469Z,22.48
2023-06-14T09:18:39.338Z,22.66
2023-06-14T09:19:42.019Z,22.80
2023-06-14T09:20:44.831Z,22.55
2023-06-14T09:21:48.575Z,22.72
2023-06-14T09:22:50.829Z,22.74
2023-06-14T09:23:54.618Z,22.84
2023-06-14T09:24:56.875Z,22.79
2023-06-14T09:25:59.116Z,23.15
2023-06-14T09:27:01.574Z,23.28
2023-06-14T09:28:07.705Z,23.62
2023-06-14T09:29:10.814Z,23.53
2023-06-14T09:30:13.483Z,23.77
2023-06-14T09:31:17.834Z,23.01
2023-06-14T09:32:21.125Z,22.86
2023-06-14T09:33:23.401Z,22.63
2023-06-14T09:34:25.592Z,22.45
2023-06-14T09:35:30.704Z,22.34
2023-06-14T09:36:33.528Z,22.69
2023-06-14T09:37:36.226Z,22.76
2023-06-14T09:38:41.699Z,23.58
2023-06-14T09:39:53.708Z,23.05
2023-06-14T09:40:59.169Z,22.86
2023-06-14T09:42:01.378Z,23.48
2023-06-14T09:43:07.395Z,23.19
2023-06-14T09:44:15.769Z,22.95
2023-06-14T09:45:23.333Z,23.21
2023-06-14T09:46:25.965Z,23.09
2023-06-14T09:47:28.219Z,23.09
2023-06-14T09:48:30.515Z,23.43
2023-06-14T09:49:34.314Z,23.95
2023-06-14T09:50:36.842Z,23.66
2023-06-14T09:51:46.070Z,23.54
2023-06-14T09:53:51.489Z,23.76
2023-06-14T09:54:54.855Z,24.27
2023-06-14T09:55:58.566Z,24.20
2023-06-14T09:57:03.724Z,24.41
2023-06-14T09:58:07.831Z,24.38
2023-06-14T09:59:13.526Z,23.76
2023-06-14T10:00:16.786Z,23.29
2023-06-14T10:01:19.650Z,23.58
2023-06-14T10:02:37.046Z,24.43
2023-06-14T10:03:57.659Z,24.94
2023-06-14T10:05:12.813Z,25.44
2023-06-14T10:06:16.352Z,25.37
2023-06-14T10:07:21.731Z,25.35
2023-06-14T10:08:30.599Z,25.20
2023-06-14T10:09:34.853Z,24.09
2023-06-14T10:10:40.912Z,24.93
2023-06-14T10:11:45.978Z,24.98
2023-06-14T10:12:48.800Z,25.16
2023-06-14T10:13:51.342Z,25.50
2023-06-14T10:14:57.140Z,25.59
2023-06-14T10:16:13.585Z,25.39
2023-06-14T10:17:23.520Z,25.59
2023-06-14T10:18:36.846Z,25.30
2023-06-14T10:19:48.957Z,24.67
2023-06-14T10:21:08.300Z,25.39
2023-06-14T10:22:26.107Z,25.11
2023-06-14T10:23:30.447Z,24.72
2023-06-14T10:24:41.928Z,24.63
2023-06-14T10:25:44.178Z,24.29
2023-06-14T10:26:58.327Z,24.65
2023-06-14T10:28:20.489Z,23.78
2023-06-14T10:29:23.002Z,23.43
2023-06-14T10:30:27.128Z,23.08
2023-06-14T10:31:49.149Z,24.27
2023-06-14T10:33:08.331Z,24.64
2023-06-14T10:34:11.666Z,24.47
2023-06-14T10:35:17.866Z,24.80
2023-06-14T10:36:23.217Z,25.44
2023-06-14T10:37:25.982Z,25.71
2023-06-14T10:38:33.276Z,25.66
2023-06-14T10:39:48.926Z,25.77
2023-06-14T10:40:56.757Z,25.51
2023-06-14T10:42:02.228Z,24.74
2023-06-14T10:43:24.812Z,25.04
2023-06-14T10:44:26.961Z,25.06
2023-06-14T10:45:29.279Z,25.18
2023-06-14T10:46:31.615Z,24.58
2023-06-14T10:47:41.643Z,24.23
2023-06-14T10:48:46.638Z,25.04
2023-06-14T10:49:52.777Z,25.45
2023-06-14T10:51:02.162Z,25.51
2023-06-14T10:52:07.513Z,25.60
2023-06-14T10:53:27.756Z,26.06
2023-06-14T10:54:29.955Z,26.48
2023-06-14T10:55:36.803Z,26.93
2023-06-14T10:56:38.992Z,26.48
2023-06-14T10:57:59.440Z,26.36
2023-06-14T10:59:01.757Z,26.56
2023-06-14T11:00:16.961Z,26.18
2023-06-14T11:01:33.029Z,26.06
2023-06-14T11:03:06.504Z,25.83
2023-06-14T11:04:11.316Z,26.10
2023-06-14T11:05:17.191Z,26.12
2023-06-14T11:06:24.309Z,25.72
2023-06-14T11:08:05.814Z,25.63
2023-06-14T11:09:35.241Z,25.48
2023-06-14T11:10:42.161Z,25.84
2023-06-14T11:11:45.184Z,26.36
2023-06-14T11:12:49.705Z,26.90
2023-06-14T11:13:54.568Z,27.36
2023-06-14T11:14:56.828Z,27.59
2023-06-14T11:15:59.735Z,27.43
2023-06-14T11:17:02.092Z,26.24
2023-06-14T11:18:06.741Z,25.60
2023-06-14T11:19:09.030Z,24.57
2023-06-14T11:20:18.680Z,23.98
2023-06-14T11:21:23.060Z,23.57
2023-06-14T11:22:25.284Z,24.20
2023-06-14T11:23:27.502Z,24.46
2023-06-14T11:24:29.953Z,24.68
2023-06-14T11:25:32.684Z,24.77
2023-06-14T11:26:36.487Z,25.20
2023-06-14T11:27:38.773Z,26.03
2023-06-14T11:28:42.000Z,25.96
2023-06-14T11:29:51.116Z,25.14
2023-06-14T11:31:04.324Z,25.38
2023-06-14T11:32:13.324Z,25.94
2023-06-14T11:33:21.807Z,25.99
2023-06-14T11:34:25.513Z,25.80
2023-06-14T11:35:27.980Z,25.72
2023-06-14T11:36:31.852Z,25.90
2023-06-14T11:37:35.096Z,26.25
2023-06-14T11:38:38.408Z,26.15
2023-06-14T11:39:45.603Z,26.42
2023-06-14T11:40:48.073Z,25.39
2023-06-14T11:41:50.352Z,25.14
2023-06-14T11:43:02.654Z,24.94
2023-06-14T11:44:05.679Z,25.47
2023-06-14T11:45:12.244Z,24.62
2023-06-14T11:46:16.626Z,24.87
2023-06-14T11:47:19.013Z,24.79
2023-06-14T11:48:21.251Z,25.51
2023-06-14T11:49:24.847Z,25.80
2023-06-14T11:50:28.864Z,25.90
2023-06-14T11:51:33.087Z,25.76
2023-06-14T11:52:37.759Z,25.98
2023-06-14T11:53:40.242Z,26.16
2023-06-14T11:54:42.504Z,25.38
2023-06-14T11:55:47.142Z,26.04
2023-06-14T11:56:50.318Z,26.34
2023-06-14T11:57:55.094Z,27.22
2023-06-14T11:59:00.292Z,27.03
2023-06-14T12:00:08.830Z,25.79
2023-06-14T12:01:19.866Z,24.57
2023-06-14T12:02:25.175Z,24.77
2023-06-14T12:03:30.901Z,24.73
2023-06-14T12:04:33.356Z,25.03
2023-06-14T12:05:35.714Z,24.68
2023-06-14T12:06:41.095Z,24.10
2023-06-14T12:07:46.578Z,24.64
2023-06-14T12:08:50.510Z,25.62
2023-06-14T12:09:55.703Z,26.06
2023-06-14T12:10:58.442Z,26.56
2023-06-14T12:12:04.857Z,27.03
2023-06-14T12:13:07.119Z,26.57
2023-06-14T12:14:10.403Z,27.19
2023-06-14T12:15:13.374Z,27.52
2023-06-14T12:16:15.769Z,27.70
2023-06-14T12:17:19.037Z,27.78
2023-06-14T12:18:21.651Z,27.41
2023-06-14T12:19:27.248Z,27.65
2023-06-14T12:20:31.137Z,26.84
2023-06-14T12:21:34.144Z,26.88
2023-06-14T12:22:36.429Z,26.17
2023-06-14T12:23:45.082Z,25.98
2023-06-14T12:24:47.338Z,26.08
2023-06-14T12:25:50.242Z,26.07
2023-06-14T12:26:53.690Z,26.30
2023-06-14T12:27:56.803Z,27.04
2023-06-14T12:28:59.555Z,27.65
2023-06-14T12:30:03.657Z,26.91
2023-06-14T12:31:08.192Z,26.76
2023-06-14T12:32:11.010Z,26.33
2023-06-14T12:33:13.714Z,26.59
2023-06-14T12:34:16.221Z,26.94
2023-06-14T12:35:22.226Z,27.16
2023-06-14T12:36:24.526Z,27.45
2023-06-14T12:37:26.720Z,27.57
2023-06-14T12:38:28.893Z,27.65
2023-06-14T12:39:34.650Z,27.79
2023-06-14T12:40:38.805Z,27.45
2023-06-14T12:41:42.897Z,27.61
2023-06-14T12:42:47.839Z,27.59
2023-06-14T12:43:50.023Z,26.97
2023-06-14T12:44:52.248Z,26.38
2023-06-14T12:45:54.815Z,26.58
2023-06-14T12:46:57.125Z,26.70
2023-06-14T12:47:59.383Z,27.36
2023-06-14T12:49:02.118Z,26.64
2023-06-14T12:50:04.659Z,25.74
2023-06-14T12:51:06.838Z,25.21
2023-06-14T12:52:09.228Z,25.50
2023-06-14T12:53:12.012Z,25.77
2023-06-14T12:54:17.074Z,26.44
2023-06-14T12:55:21.263Z,26.35
2023-06-14T12:56:25.057Z,25.92
2023-06-14T12:57:27.428Z,25.43
2023-06-14T12:58:29.793Z,25.63
2023-06-14T12:59:34.232Z,25.63
2023-06-14T13:00:36.627Z,25.56
2023-06-14T13:01:39.872Z,25.26
2023-06-14T13:02:42.178Z,25.32
2023-06-14T13:03:44.541Z,25.33
2023-06-14T13:04:46.890Z,25.22
2023-06-14T13:05:50.047Z,24.98
2023-06-14T13:06:52.298Z,25.19
2023-06-14T13:07:54.484Z,25.43
2023-06-14T13:08:58.700Z,25.63
2023-06-14T13:10:00.935Z,26.13
2023-06-14T13:11:03.242Z,26.86
2023-06-14T13:12:06.548Z,27.15
2023-06-14T13:13:09.301Z,27.40
2023-06-14T13:14:24.709Z,27.15
2023-06-14T13:15:28.301Z,26.71
2023-06-14T13:16:30.812Z,26.26
2023-06-14T13:17:34.262Z,26.51
2023-06-14T13:18:36.700Z,26.06
2023-06-14T13:19:39.027Z,26.87
2023-06-14T13:20:41.247Z,26.00
2023-06-14T13:21:43.468Z,25.97
2023-06-14T13:22:45.813Z,26.20
2023-06-14T13:23:48.270Z,26.44
2023-06-14T13:24:50.686Z,26.38
2023-06-14T13:25:53.117Z,26.43
2023-06-14T13:26:55.327Z,26.86
2023-06-14T13:27:57.480Z,26.73
2023-06-14T13:28:59.740Z,27.29
2023-06-14T13:30:02.061Z,27.48
2023-06-14T13:31:07.079Z,27.82
2023-06-14T13:32:09.671Z,27.33
2023-06-14T13:33:12.042Z,26.92
2023-06-14T13:34:14.284Z,26.38
2023-06-14T13:35:16.529Z,26.16
2023-06-14T13:36:18.738Z,25.79
2023-06-14T13:37:20.983Z,25.71
2023-06-14T13:38:23.241Z,25.79
2023-06-14T13:39:26.417Z,25.72
2023-06-14T13:40:28.870Z,25.90
2023-06-14T13:41:33.172Z,25.60
2023-06-14T13:42:36.668Z,25.52
2023-06-14T13:43:38.982Z,25.56
2023-06-14T13:47:59.225Z,25.85
2023-06-14T13:49:20.148Z,26.27
2023-06-14T13:52:19.525Z,25.16
2023-06-14T13:55:18.757Z,25.86
2023-06-14T14:00:02.003Z,26.44
2023-06-14T14:01:33.282Z,26.98
2023-06-14T14:07:53.401Z,27.98
2023-06-14T14:12:32.266Z,28.26